Date,TemperatureHighF,TemperatureAvgF,TemperatureLowF,DewpointHighF,DewpointAvgF,DewpointLowF,HumidityHigh,HumidityAvg,HumidityLow,PressureMaxIn,PressureMinIn,WindSpeedMaxMPH,WindSpeedAvgMPH,GustSpeedMaxMPH,PrecipitationSumIn
2013-3-1,64.8,55.2,47.7,47.6,42.0,35.5,91,63,39,29.98,29.87,7,2,16,0.00
2013-3-2,51.4,47.6,41.1,39.2,37.0,35.1,79,67,62,29.99,29.96,8,2,12,0.00
2013-3-8,72.4,51.0,41.4,54.5,45.9,40.1,97,85,50,30.21,30.12,3,0,9,0.00
2013-3-9,76.4,60.3,49.1,60.4,51.7,47.7,97,76,43,30.20,30.10,8,1,13,0.00
2013-3-10,79.4,70.8,58.3,59.6,56.9,54.0,87,63,46,30.12,30.07,10,2,17,0.00
2013-3-11,79.6,64.6,49.7,62.0,56.5,47.8,98,77,50,30.10,29.89,7,2,17,0.00
2013-3-12,71.0,66.2,57.7,67.3,62.5,56.0,96,88,78,29.99,29.84,8,3,18,0.20
2013-3-13,75.3,59.2,46.1,55.9,44.3,33.7,95,64,24,30.14,29.99,8,1,17,0.01
2013-3-14,68.3,52.8,41.2,43.6,37.5,30.3,91,60,26,30.24,30.12,7,1,15,0.00
2013-3-15,74.3,53.2,35.0,45.7,38.4,33.4,97,64,27,30.27,30.11,6,0,10,0.00
2013-3-16,81.1,60.5,41.3,52.6,44.0,39.3,97,61,27,30.16,30.01,6,1,12,0.00
2013-3-17,78.5,62.3,44.2,60.4,51.2,42.0,97,70,44,30.12,29.97,7,1,14,0.00
2013-3-18,80.0,71.9,63.0,66.6,63.0,59.1,89,74,59,30.04,29.87,9,2,16,0.00
2013-3-19,88.6,72.2,62.5,65.4,62.7,60.2,96,75,41,30.00,29.85,6,0,10,0.00
2013-3-20,76.1,66.6,57.6,69.4,62.6,56.2,96,87,68,29.95,29.76,7,0,15,0.71
2013-3-21,70.7,57.7,46.4,56.4,43.9,30.0,96,66,24,29.94,29.83,8,1,14,0.01
2013-3-22,79.8,59.2,41.2,60.7,49.8,39.9,97,76,38,30.00,29.88,7,0,10,0.04
2013-3-23,86.8,71.4,62.5,75.8,66.7,60.5,97,86,64,29.96,29.73,8,1,16,0.12
2013-3-24,83.4,72.6,65.9,73.6,68.9,63.6,96,89,69,29.83,29.59,15,3,30,0.57
2013-3-25,72.1,64.7,53.6,66.1,47.9,32.5,93,60,24,30.00,29.67,12,3,20,0.01
2013-3-26,61.0,52.8,45.0,39.9,31.5,25.5,69,45,28,30.21,29.99,13,4,23,0.00
2013-3-27,64.4,50.4,39.0,41.5,34.6,30.2,87,58,29,30.29,30.17,6,1,13,0.00
2013-3-28,73.3,53.4,35.3,44.7,38.2,32.6,96,64,24,30.28,30.15,6,1,13,0.00
2013-3-29,76.5,57.4,39.5,51.1,40.9,37.2,97,62,25,30.31,30.16,5,0,13,0.00
2013-3-30,80.2,62.6,42.5,55.8,49.0,40.9,97,66,34,30.24,30.08,7,1,15,0.00
2013-3-31,83.2,70.2,58.9,58.8,55.3,52.9,86,61,39,30.15,29.96,12,2,18,0.00